Grand Ronde, Oregon
Current Conditions -  °F | °C
As of 12:53 PM on Sunday 21 Dec 2014 (Local Time) from KMMV Reporting Station
Overcast Overcast  
Wind Chill: 56°   Ceiling: 5500
Heat Index: 56°   Visibility: 10mi
Dew Point: 50°   Wind: 13mph
Humidity: 80%   Direction: 210°SSW
Pressure: 30.1"   Gusts: NA
Location:  45.06°N, 123.61°W
Report Text: KMMV 212053Z AUTO 21011KT 10SM FEW032 BKN055 OVC070 13/10 A3010 RMK AO2 SLP191 T01330100 53011 $
Loading
Personal Weather Stations






























Interactive Weather Map New forecast layout! Learn more

10-Day Weather Forecast

Advertisements
Track Severe Weather on mobile